Time;durP1;ratioP1;P1;durP2;ratioP2;P2;SDS_P1;SDS_P2;PMS_P1;PMS_P2;Temp;Humidity;BMP_temperature;BMP_pressure;BME280_temperature;BME280_humidity;BME280_pressure;Samples;Min_cycle;Max_cycle;Signal;HPM_P1;HPM_P2
2023/03/25 00:00:58;;;;;;;2.90;0.88;;;12.00;98.20;;;;;;5030664;28;20038;-71
2023/03/25 00:03:32;;;;;;;2.95;0.80;;;12.10;98.30;;;;;;5031943;28;20507;-71
2023/03/25 00:05:58;;;;;;;2.75;0.93;;;12.00;98.30;;;;;;5031933;28;20032;-71
2023/03/25 00:08:25;;;;;;;1.65;1.02;;;12.00;98.30;;;;;;5031449;28;20061;-71
2023/03/25 00:10:53;;;;;;;3.22;1.05;;;12.20;98.40;;;;;;5031706;28;20029;-71
2023/03/25 00:13:20;;;;;;;4.18;0.90;;;12.00;98.30;;;;;;5031347;28;20037;-71
2023/03/25 00:15:46;;;;;;;3.33;1.00;;;12.10;98.30;;;;;;5030292;28;20485;-71
2023/03/25 00:18:12;;;;;;;2.30;0.77;;;12.10;98.20;;;;;;5030883;28;20115;-71
2023/03/25 00:20:44;;;;;;;3.53;1.38;;;12.20;98.20;;;;;;5031242;28;20121;-71
2023/03/25 00:23:11;;;;;;;1.63;0.68;;;12.10;98.20;;;;;;5031125;28;20025;-71
2023/03/25 00:25:37;;;;;;;2.97;1.10;;;12.20;98.20;;;;;;5030207;28;20642;-72
2023/03/25 00:28:03;;;;;;;6.13;1.88;;;12.10;98.30;;;;;;5030008;28;20048;-72
2023/03/25 00:30:29;;;;;;;4.20;1.08;;;12.10;98.30;;;;;;5031192;28;20021;-71
2023/03/25 00:32:56;;;;;;;3.95;1.45;;;12.10;98.20;;;;;;5030512;28;20484;-70
2023/03/25 00:35:22;;;;;;;2.88;1.00;;;12.20;98.20;;;;;;5030820;28;20502;-71
2023/03/25 00:37:58;;;;;;;3.85;0.95;;;12.10;98.40;;;;;;5029865;28;20432;-71
2023/03/25 00:40:27;;;;;;;4.32;0.90;;;12.10;98.30;;;;;;5031084;28;20041;-71
2023/03/25 00:42:53;;;;;;;4.05;0.90;;;12.10;98.20;;;;;;5030854;28;20033;-72
2023/03/25 00:45:19;;;;;;;3.75;0.95;;;12.00;98.30;;;;;;5031282;28;20029;-71
2023/03/25 00:47:45;;;;;;;4.05;1.15;;;11.90;98.40;;;;;;5030986;28;20091;-72
2023/03/25 00:50:11;;;;;;;7.22;1.00;;;12.00;98.30;;;;;;5030703;28;20101;-71
2023/03/25 00:52:37;;;;;;;5.00;1.10;;;11.90;98.50;;;;;;5029715;28;20055;-72
2023/03/25 00:55:04;;;;;;;4.65;0.98;;;12.00;98.40;;;;;;5029380;28;20460;-71
2023/03/25 00:57:30;;;;;;;3.50;0.98;;;12.00;98.30;;;;;;5030558;28;20029;-71
2023/03/25 00:59:57;;;;;;;5.68;1.52;;;12.20;98.30;;;;;;5031023;28;20355;-72
2023/03/25 01:02:23;;;;;;;1.73;0.93;;;12.00;98.30;;;;;;5030654;28;20037;-70
2023/03/25 01:04:49;;;;;;;7.47;1.42;;;11.90;98.30;;;;;;5030332;28;20033;-71
2023/03/25 01:07:19;;;;;;;6.22;1.13;;;11.90;98.30;;;;;;5029951;28;20045;-71
2023/03/25 01:09:46;;;;;;;3.15;0.75;;;11.90;98.30;;;;;;5030353;28;20495;-71
2023/03/25 01:12:13;;;;;;;3.40;1.00;;;11.90;98.40;;;;;;5030847;28;20021;-71
2023/03/25 01:14:39;;;;;;;5.33;1.50;;;11.90;98.40;;;;;;5030883;28;20412;-71
2023/03/25 01:17:05;;;;;;;5.00;1.17;;;11.90;98.50;;;;;;5030460;28;20266;-71
2023/03/25 01:19:31;;;;;;;3.60;0.93;;;11.80;98.40;;;;;;5030356;28;20057;-71
2023/03/25 01:21:56;;;;;;;2.58;0.80;;;11.90;98.70;;;;;;5030417;28;20041;-71
2023/03/25 01:24:22;;;;;;;4.22;0.75;;;11.80;98.40;;;;;;5030353;28;20487;-73
2023/03/25 01:26:48;;;;;;;4.40;0.75;;;11.80;98.40;;;;;;5029725;28;20025;-71
2023/03/25 01:29:16;;;;;;;4.78;0.98;;;11.80;98.30;;;;;;5030347;28;20034;-72
2023/03/25 01:31:41;;;;;;;;;;;11.80;98.20;;;;;;5030679;28;20129;-72
2023/03/25 01:34:09;;;;;;;3.72;1.10;;;11.80;98.20;;;;;;5030168;28;20509;-71
2023/03/25 01:36:38;;;;;;;4.43;0.83;;;11.80;98.30;;;;;;5030141;28;20029;-71
2023/03/25 01:39:07;;;;;;;4.03;0.90;;;11.80;98.40;;;;;;5030826;28;20255;-73
2023/03/25 01:41:35;;;;;;;4.25;1.15;;;11.90;98.20;;;;;;5030197;28;20136;-71
2023/03/25 01:44:23;;;;;;;4.95;1.17;;;11.90;98.10;;;;;;5030091;28;20029;-71
2023/03/25 01:46:51;;;;;;;3.45;1.20;;;11.90;98.10;;;;;;5028976;28;20041;-71
2023/03/25 01:49:22;;;;;;;;;;;12.00;98.20;;;;;;5030383;28;20096;-72
2023/03/25 01:51:53;;;;;;;6.88;0.65;;;12.00;98.00;;;;;;5029964;28;19909;-71
2023/03/25 01:54:20;;;;;;;6.13;1.45;;;12.10;98.00;;;;;;5029878;28;20534;-71
2023/03/25 01:56:48;;;;;;;5.40;1.30;;;12.00;97.90;;;;;;5030509;28;20025;-71
2023/03/25 01:59:17;;;;;;;2.35;1.00;;;12.10;97.90;;;;;;5029997;28;20560;-71
2023/03/25 02:01:45;;;;;;;4.30;1.00;;;12.10;97.80;;;;;;5030190;28;20036;-71
2023/03/25 02:04:14;;;;;;;5.22;1.02;;;12.10;97.80;;;;;;5029973;28;20045;-71
2023/03/25 02:06:49;;;;;;;3.47;0.90;;;12.20;97.80;;;;;;5029947;28;20039;-72
2023/03/25 02:09:18;;;;;;;3.78;0.98;;;12.10;97.80;;;;;;5028744;28;20037;-71
2023/03/25 02:11:44;;;;;;;3.67;1.02;;;12.10;97.80;;;;;;5030379;28;20020;-71
2023/03/25 02:14:14;;;;;;;4.47;1.00;;;12.10;97.90;;;;;;5029935;28;20368;-71
2023/03/25 02:17:08;;;;;;;4.93;1.38;;;12.10;98.00;;;;;;5030240;28;20075;-72
2023/03/25 02:19:39;;;;;;;4.05;1.20;;;12.10;98.10;;;;;;5033279;28;20092;-73
2023/03/25 02:22:48;;;;;;;3.70;1.20;;;12.10;98.30;;;;;;5032364;28;20057;-72
2023/03/25 02:25:38;;;;;;;3.13;1.10;;;12.10;98.30;;;;;;5033241;28;20577;-71
2023/03/25 02:28:35;;;;;;;2.72;1.02;;;12.10;98.40;;;;;;5033169;28;20064;-72
2023/03/25 02:31:12;;;;;;;4.97;1.63;;;12.00;98.50;;;;;;5033288;28;20151;-72
2023/03/25 02:33:56;;;;;;;10.15;1.40;;;12.00;98.90;;;;;;5033210;28;20470;-71
2023/03/25 02:36:29;;;;;;;5.60;1.10;;;12.00;99.40;;;;;;5020226;28;20088;-71
2023/03/25 02:39:13;;;;;;;3.30;1.10;;;12.00;99.80;;;;;;5013691;28;20048;-72
2023/03/25 02:41:42;;;;;;;5.18;1.38;;;12.00;99.90;;;;;;5013367;28;20088;-72
2023/03/25 02:44:21;;;;;;;7.20;1.42;;;12.00;99.90;;;;;;5013095;28;20092;-72
2023/03/25 02:46:52;;;;;;;6.10;1.50;;;11.80;99.90;;;;;;5013035;28;20038;-73
2023/03/25 02:49:28;;;;;;;3.97;1.48;;;11.70;99.90;;;;;;5012816;28;20045;-71
2023/03/25 02:52:24;;;;;;;6.03;1.20;;;11.90;99.90;;;;;;5013079;28;20057;-72
2023/03/25 02:54:56;;;;;;;3.92;1.40;;;11.80;99.90;;;;;;5013147;28;20057;-71
2023/03/25 02:57:24;;;;;;;3.78;1.25;;;11.80;99.90;;;;;;5011864;28;20029;-72
2023/03/25 02:59:52;;;;;;;3.20;1.45;;;11.90;99.90;;;;;;5013359;28;20015;-71
2023/03/25 03:02:24;;;;;;;5.35;1.77;;;11.70;99.90;;;;;;5011864;28;20053;-71
2023/03/25 03:04:55;;;;;;;3.20;1.75;;;11.80;99.90;;;;;;5011741;28;20091;-70
2023/03/25 03:07:27;;;;;;;3.67;1.60;;;11.80;99.90;;;;;;5013007;28;20120;-71
2023/03/25 03:10:04;;;;;;;5.45;1.60;;;11.70;99.90;;;;;;5012434;28;20045;-70
2023/03/25 03:13:04;;;;;;;2.97;1.33;;;11.70;99.90;;;;;;5012599;28;20523;-71
2023/03/25 03:15:40;;;;;;;4.93;1.98;;;11.70;99.70;;;;;;5012579;28;20061;-71
2023/03/25 03:18:33;;;;;;;3.17;2.05;;;11.60;99.70;;;;;;5011803;28;20448;-71
2023/03/25 03:21:12;;;;;;;7.50;1.90;;;11.60;99.80;;;;;;5012169;28;20423;-72
2023/03/25 03:23:56;;;;;;;7.50;1.80;;;11.60;99.40;;;;;;5011066;28;20077;-72
2023/03/25 03:26:42;;;;;;;3.85;1.77;;;11.70;99.20;;;;;;5012478;28;20550;-72
2023/03/25 03:29:22;;;;;;;5.45;2.00;;;11.50;99.30;;;;;;5011693;28;20026;-72
2023/03/25 03:32:03;;;;;;;8.38;2.00;;;11.60;99.20;;;;;;5012277;28;20073;-73
2023/03/25 03:34:43;;;;;;;6.95;2.10;;;11.50;99.30;;;;;;5011126;28;20026;-71
2023/03/25 03:37:12;;;;;;;3.72;1.83;;;11.40;99.50;;;;;;5010862;28;20026;-72
2023/03/25 03:39:39;;;;;;;4.30;1.60;;;11.30;99.80;;;;;;5011797;28;20022;-72
2023/03/25 03:42:31;;;;;;;3.70;1.85;;;11.30;99.50;;;;;;5012443;28;20022;-72
2023/03/25 03:45:03;;;;;;;5.88;1.88;;;11.40;99.40;;;;;;5010538;28;20042;-72
2023/03/25 03:47:34;;;;;;;5.38;1.85;;;11.40;99.10;;;;;;5011986;28;20030;-71
2023/03/25 03:50:14;;;;;;;4.78;1.83;;;11.40;99.20;;;;;;5010836;28;20376;-72
2023/03/25 03:53:02;;;;;;;6.20;1.70;;;11.40;98.90;;;;;;5011890;28;20026;-72
2023/03/25 03:55:36;;;;;;;6.40;1.50;;;11.30;99.00;;;;;;5011784;28;20042;-72
2023/03/25 03:58:09;;;;;;;6.13;1.80;;;11.40;98.90;;;;;;5011743;28;20034;-72
2023/03/25 04:00:41;;;;;;;3.42;1.20;;;11.40;98.80;;;;;;5010689;28;20057;-72
2023/03/25 04:03:37;;;;;;;7.57;1.20;;;11.40;98.90;;;;;;5012030;28;20129;-73
2023/03/25 04:06:14;;;;;;;8.50;1.73;;;11.40;98.70;;;;;;5011730;28;20040;-71
2023/03/25 04:08:57;;;;;;;7.35;1.88;;;11.40;99.00;;;;;;5010501;28;20491;-72
2023/03/25 04:11:40;;;;;;;26.00;4.78;;;11.40;98.60;;;;;;5011594;28;20034;-70
2023/03/25 04:14:07;;;;;;;6.07;1.50;;;11.40;98.60;;;;;;5011519;28;20111;-72
2023/03/25 04:16:33;;;;;;;2.80;1.35;;;11.40;98.70;;;;;;5011320;28;20456;-72
2023/03/25 04:18:58;;;;;;;6.25;1.50;;;11.40;98.50;;;;;;5011392;28;20045;-74
2023/03/25 04:21:24;;;;;;;8.43;1.42;;;11.40;98.30;;;;;;5010335;28;20368;-73
2023/03/25 04:23:50;;;;;;;4.40;1.10;;;11.30;98.20;;;;;;5011711;28;20116;-73
2023/03/25 04:26:16;;;;;;;7.63;1.40;;;11.30;98.10;;;;;;5011337;28;20034;-72
2023/03/25 04:28:45;;;;;;;9.98;1.05;;;11.30;98.00;;;;;;5011325;28;20463;-72
2023/03/25 04:31:16;;;;;;;9.35;1.30;;;11.30;98.00;;;;;;5011090;28;20045;-72
2023/03/25 04:33:47;;;;;;;9.30;1.75;;;11.30;98.10;;;;;;5011412;28;20487;-72
2023/03/25 04:36:13;;;;;;;8.23;1.80;;;11.30;98.20;;;;;;5011614;28;20045;-73
2023/03/25 04:38:40;;;;;;;9.70;1.90;;;11.40;98.20;;;;;;5010165;28;20060;-72
2023/03/25 04:41:09;;;;;;;3.58;1.20;;;11.20;98.20;;;;;;5008933;28;20034;-72
2023/03/25 04:43:38;;;;;;;4.43;1.30;;;11.10;98.30;;;;;;5011239;28;20096;-72
2023/03/25 04:46:04;;;;;;;5.68;1.30;;;11.10;98.30;;;;;;5011175;28;20033;-73
2023/03/25 04:48:32;;;;;;;7.72;1.38;;;11.10;98.50;;;;;;5010733;28;20033;-71
2023/03/25 04:51:00;;;;;;;4.63;1.48;;;11.10;98.20;;;;;;5010369;28;20022;-72
2023/03/25 04:53:27;;;;;;;6.97;1.75;;;11.00;98.30;;;;;;5010910;28;20030;-72
2023/03/25 04:55:53;;;;;;;5.97;1.55;;;11.10;98.40;;;;;;5011000;28;20034;-72
2023/03/25 04:58:19;;;;;;;4.65;1.58;;;11.10;98.40;;;;;;5010903;28;20034;-72
2023/03/25 05:00:49;;;;;;;8.48;1.63;;;11.10;98.20;;;;;;5009775;28;20427;-72
2023/03/25 05:03:14;;;;;;;7.97;1.85;;;11.20;98.20;;;;;;5010545;28;20447;-72
2023/03/25 05:05:40;;;;;;;6.57;2.10;;;11.10;98.30;;;;;;5011251;28;20271;-72
2023/03/25 05:08:06;;;;;;;7.97;1.38;;;11.10;98.50;;;;;;5009370;28;20050;-72
2023/03/25 05:10:34;;;;;;;5.88;1.63;;;11.00;98.60;;;;;;5010602;28;20397;-71
2023/03/25 05:13:04;;;;;;;7.72;1.73;;;11.10;98.50;;;;;;5010657;28;20483;-72
2023/03/25 05:15:34;;;;;;;2.70;1.55;;;11.10;98.50;;;;;;5010585;28;20026;-73
2023/03/25 05:18:00;;;;;;;8.20;1.80;;;11.00;98.50;;;;;;5011154;28;20026;-72
2023/03/25 05:20:26;;;;;;;5.70;1.40;;;11.00;98.70;;;;;;5010462;28;20117;-70
2023/03/25 05:22:56;;;;;;;3.05;1.60;;;11.00;98.60;;;;;;5010529;28;20054;-71
2023/03/25 05:25:21;;;;;;;3.45;1.30;;;11.00;98.80;;;;;;5010652;28;20480;-72
2023/03/25 05:27:47;;;;;;;6.10;1.55;;;10.90;98.60;;;;;;5009342;28;20026;-72
2023/03/25 05:30:14;;;;;;;2.08;1.10;;;10.80;99.00;;;;;;5010983;28;20029;-71
2023/03/25 05:32:41;;;;;;;1.53;1.13;;;10.80;99.10;;;;;;5009710;28;20073;-71
2023/03/25 05:35:07;;;;;;;3.05;1.20;;;10.90;99.10;;;;;;5010590;28;20292;-72
2023/03/25 05:37:32;;;;;;;4.65;1.30;;;10.80;99.20;;;;;;5010384;28;20026;-72
2023/03/25 05:39:58;;;;;;;5.45;1.20;;;10.70;98.90;;;;;;5010549;28;20084;-71
2023/03/25 05:42:24;;;;;;;3.45;1.10;;;10.70;98.90;;;;;;5010579;28;20022;-72
2023/03/25 05:44:51;;;;;;;25.90;7.88;;;10.80;98.80;;;;;;5010901;28;20057;-72
2023/03/25 05:47:27;;;;;;;5.28;1.35;;;10.80;98.80;;;;;;5009372;28;20475;-72
2023/03/25 05:49:53;;;;;;;2.70;0.93;;;10.70;99.00;;;;;;5010419;28;20352;-73
2023/03/25 05:52:23;;;;;;;3.13;1.20;;;10.60;99.30;;;;;;5010663;28;20052;-72
2023/03/25 05:54:49;;;;;;;2.42;1.05;;;10.70;99.60;;;;;;5014137;28;20104;-72
2023/03/25 05:57:15;;;;;;;3.83;1.30;;;10.70;99.60;;;;;;5014476;28;20033;-72
2023/03/25 05:59:41;;;;;;;4.65;1.42;;;10.80;99.70;;;;;;5014813;28;20068;-72
2023/03/25 06:02:12;;;;;;;4.20;1.73;;;10.80;99.70;;;;;;5014263;28;20026;-72
2023/03/25 06:04:40;;;;;;;3.47;1.40;;;10.80;99.80;;;;;;5013958;28;20026;-72
2023/03/25 06:07:13;;;;;;;;;;;10.80;99.80;;;;;;5013310;28;20030;-73
2023/03/25 06:09:44;;;;;;;6.63;2.03;;;10.80;99.70;;;;;;5014107;28;19921;-71
2023/03/25 06:12:18;;;;;;;4.10;1.80;;;10.90;99.80;;;;;;5014347;28;20415;-73
2023/03/25 06:14:45;;;;;;;4.30;1.70;;;10.90;99.70;;;;;;5014334;28;20045;-71
2023/03/25 06:17:12;;;;;;;7.93;1.80;;;10.90;99.80;;;;;;5013758;28;20388;-73
2023/03/25 06:19:38;;;;;;;5.55;2.22;;;10.90;99.70;;;;;;5013681;28;20034;-72
2023/03/25 06:22:08;;;;;;;4.60;1.95;;;11.00;99.70;;;;;;5013517;28;20048;-72
2023/03/25 06:24:34;;;;;;;4.82;1.75;;;11.00;99.60;;;;;;5013292;28;20049;-71
2023/03/25 06:27:00;;;;;;;3.33;1.60;;;11.10;99.50;;;;;;5012810;28;20034;-73
2023/03/25 06:29:27;;;;;;;10.68;1.83;;;11.10;99.30;;;;;;5013356;28;20034;-73
2023/03/25 06:31:52;;;;;;;3.67;1.70;;;11.10;99.50;;;;;;5013307;28;20052;-72
2023/03/25 06:34:18;;;;;;;7.95;2.28;;;11.20;99.20;;;;;;5013117;28;20116;-72
2023/03/25 06:36:43;;;;;;;4.80;1.90;;;11.20;99.20;;;;;;5013093;28;20459;-72
2023/03/25 06:39:09;;;;;;;6.55;1.73;;;11.30;99.10;;;;;;5013781;28;20052;-72
2023/03/25 06:41:36;;;;;;;6.20;1.70;;;11.30;98.90;;;;;;5012040;28;20411;-71
2023/03/25 06:44:03;;;;;;;8.05;2.08;;;11.40;99.00;;;;;;5011994;28;20042;-70
2023/03/25 06:46:29;;;;;;;4.68;1.65;;;11.40;98.50;;;;;;5013228;28;20053;-72
2023/03/25 06:48:55;;;;;;;7.40;1.50;;;11.50;98.40;;;;;;5012978;28;20364;-71
2023/03/25 06:51:21;;;;;;;4.47;1.70;;;11.50;98.30;;;;;;5012812;28;20021;-72
2023/03/25 06:53:47;;;;;;;4.00;1.40;;;11.50;98.30;;;;;;5012288;28;20177;-72
2023/03/25 06:56:13;;;;;;;5.40;1.67;;;11.60;98.20;;;;;;5013028;28;20524;-72
2023/03/25 06:58:40;;;;;;;4.43;1.25;;;11.60;98.20;;;;;;5011855;28;20361;-73
2023/03/25 07:01:06;;;;;;;4.57;1.45;;;11.60;98.20;;;;;;5012736;28;20195;-71
2023/03/25 07:03:33;;;;;;;4.60;1.52;;;11.50;98.20;;;;;;5011923;28;20029;-72
2023/03/25 07:05:58;;;;;;;4.15;1.50;;;11.60;98.20;;;;;;5019601;28;20033;-73
2023/03/25 07:08:24;;;;;;;4.88;1.63;;;11.60;98.10;;;;;;5012586;28;20035;-72
2023/03/25 07:10:50;;;;;;;3.83;1.60;;;11.60;98.00;;;;;;5012574;28;20033;-73
2023/03/25 07:13:16;;;;;;;3.80;1.77;;;11.70;98.10;;;;;;5012685;28;20041;-74
2023/03/25 07:15:42;;;;;;;4.18;1.40;;;11.80;97.70;;;;;;5012605;28;20084;-73
2023/03/25 07:18:08;;;;;;;5.60;2.10;;;11.70;97.50;;;;;;5012900;28;20444;-73
2023/03/25 07:20:33;;;;;;;4.75;1.48;;;11.80;97.60;;;;;;5011391;28;20030;-73
2023/03/25 07:22:59;;;;;;;4.57;1.52;;;11.80;97.30;;;;;;5026856;28;20036;-72
2023/03/25 07:25:25;;;;;;;6.03;1.77;;;11.90;97.20;;;;;;5032122;28;20029;-71
2023/03/25 07:27:51;;;;;;;6.50;2.20;;;11.90;97.10;;;;;;5032310;28;20030;-73
2023/03/25 07:30:16;;;;;;;8.05;1.70;;;12.00;97.10;;;;;;5032348;28;20025;-73
2023/03/25 07:32:44;;;;;;;6.10;1.63;;;12.00;97.00;;;;;;5032239;28;20493;-73
2023/03/25 07:35:10;;;;;;;6.57;2.08;;;12.20;96.80;;;;;;5032019;28;20049;-73
2023/03/25 07:37:35;;;;;;;8.02;2.42;;;12.20;96.60;;;;;;5031820;28;20026;-73
2023/03/25 07:40:01;;;;;;;6.47;1.63;;;12.40;96.70;;;;;;5031996;28;20509;-75
2023/03/25 07:42:26;;;;;;;4.53;1.33;;;12.20;96.60;;;;;;5030678;28;20036;-74
2023/03/25 07:44:52;;;;;;;3.60;1.60;;;12.20;96.70;;;;;;5032048;28;20053;-74
2023/03/25 07:47:18;;;;;;;6.47;1.50;;;12.10;97.60;;;;;;5031898;28;20053;-75
2023/03/25 07:49:45;;;;;;;2.20;1.15;;;12.00;97.80;;;;;;5031763;28;20041;-73
2023/03/25 07:52:11;;;;;;;5.70;1.50;;;11.70;98.10;;;;;;5031709;28;20427;-74
2023/03/25 07:54:37;;;;;;;2.28;1.25;;;11.80;98.60;;;;;;5030515;28;20083;-73
2023/03/25 07:57:02;;;;;;;6.18;1.30;;;11.60;98.80;;;;;;5031992;28;20025;-74
2023/03/25 07:59:28;;;;;;;7.18;2.58;;;11.60;99.20;;;;;;5031715;28;20363;-74
2023/03/25 08:01:54;;;;;;;4.20;1.45;;;11.70;99.20;;;;;;5031535;28;20136;-72
2023/03/25 08:04:20;;;;;;;8.05;1.40;;;11.70;99.00;;;;;;5030121;28;20430;-73
2023/03/25 08:06:45;;;;;;;10.93;2.55;;;11.80;99.10;;;;;;5031126;28;20033;-73
2023/03/25 08:09:11;;;;;;;4.10;1.35;;;12.00;98.80;;;;;;5030433;28;20325;-72
2023/03/25 08:11:37;;;;;;;8.48;1.58;;;12.30;98.40;;;;;;5030139;28;20034;-73
2023/03/25 08:14:02;;;;;;;4.78;1.52;;;12.30;98.30;;;;;;5031478;28;20030;-73
2023/03/25 08:16:28;;;;;;;4.93;1.23;;;12.30;97.80;;;;;;5031015;28;20029;-73
2023/03/25 08:18:54;;;;;;;3.50;1.80;;;12.40;97.70;;;;;;5029967;28;20037;-72
2023/03/25 08:21:23;;;;;;;4.03;1.52;;;12.50;98.00;;;;;;5031073;28;20025;-73
2023/03/25 08:23:57;;;;;;;5.78;1.52;;;12.50;97.70;;;;;;5031471;28;20076;-71
2023/03/25 08:26:26;;;;;;;4.68;1.40;;;12.50;97.60;;;;;;5031014;28;20103;-74
2023/03/25 08:28:53;;;;;;;5.30;1.45;;;12.40;97.20;;;;;;5030891;28;20057;-70
2023/03/25 08:31:20;;;;;;;5.78;1.40;;;12.30;97.10;;;;;;5030931;28;20065;-72
2023/03/25 08:33:46;;;;;;;4.05;1.30;;;12.30;97.20;;;;;;5031012;28;20052;-72
2023/03/25 08:36:13;;;;;;;4.70;1.35;;;12.30;97.30;;;;;;5031548;28;20364;-71
2023/03/25 08:38:40;;;;;;;4.68;1.23;;;12.20;97.20;;;;;;5029728;28;20033;-72
2023/03/25 08:41:06;;;;;;;2.60;1.38;;;12.10;97.10;;;;;;5030873;28;20033;-71
2023/03/25 08:43:32;;;;;;;4.50;0.90;;;12.20;97.10;;;;;;5030617;28;20034;-75
2023/03/25 08:45:57;;;;;;;3.85;1.17;;;12.20;96.90;;;;;;5029680;28;20486;-74
2023/03/25 08:48:23;;;;;;;5.53;1.27;;;12.10;96.70;;;;;;5030547;28;20124;-74
2023/03/25 08:50:49;;;;;;;3.38;1.20;;;12.10;96.80;;;;;;5031171;28;20025;-74
2023/03/25 08:53:15;;;;;;;1.52;0.75;;;12.20;97.00;;;;;;5030754;28;20459;-73
2023/03/25 08:55:41;;;;;;;4.95;1.08;;;12.00;97.20;;;;;;5030601;28;20467;-72
2023/03/25 08:58:07;;;;;;;4.53;1.25;;;12.00;97.80;;;;;;5029586;28;20034;-72
2023/03/25 09:00:36;;;;;;;4.90;1.38;;;11.90;98.20;;;;;;5030750;28;20028;-73
2023/03/25 09:03:03;;;;;;;4.25;0.88;;;11.90;99.00;;;;;;5031176;28;20017;-72
2023/03/25 09:05:28;;;;;;;3.22;1.20;;;12.10;99.10;;;;;;5029598;28;20029;-72
2023/03/25 09:07:54;;;;;;;2.78;1.20;;;12.20;98.80;;;;;;5029619;28;20526;-72
2023/03/25 09:10:20;;;;;;;2.75;1.38;;;12.30;98.90;;;;;;5029312;28;20088;-72
2023/03/25 09:12:45;;;;;;;5.28;1.00;;;12.40;98.60;;;;;;5030447;28;20037;-71
2023/03/25 09:15:11;;;;;;;3.78;1.30;;;12.40;98.50;;;;;;5030879;28;20097;-72
2023/03/25 09:17:38;;;;;;;3.50;1.23;;;12.50;98.50;;;;;;5029194;28;20467;-67
2023/03/25 09:20:07;;;;;;;2.45;1.10;;;12.30;98.20;;;;;;5030534;28;20033;-71
2023/03/25 09:22:34;;;;;;;7.30;2.30;;;12.10;98.30;;;;;;5030510;28;20041;-72
2023/03/25 09:25:00;;;;;;;5.10;2.22;;;12.00;98.20;;;;;;5029109;28;20370;-74
2023/03/25 09:27:26;;;;;;;4.40;1.45;;;12.00;98.70;;;;;;5032103;28;20029;-71
2023/03/25 09:29:51;;;;;;;6.03;1.27;;;12.00;98.80;;;;;;5034929;28;20112;-73
2023/03/25 09:32:17;;;;;;;5.95;1.65;;;11.90;98.90;;;;;;5034353;28;20042;-74
2023/03/25 09:34:44;;;;;;;5.75;1.60;;;11.90;99.10;;;;;;5034483;28;20036;-75
2023/03/25 09:37:10;;;;;;;5.63;1.58;;;11.90;98.70;;;;;;5034581;28;20091;-78
2023/03/25 09:39:35;;;;;;;3.95;1.60;;;11.90;98.80;;;;;;5033185;28;20340;-75
2023/03/25 09:42:29;;;;;;;6.45;2.00;;;12.00;98.70;;;;;;5034932;28;20097;-76
2023/03/25 09:44:59;;;;;;;2.03;1.13;;;11.80;98.40;;;;;;5034542;28;20156;-74
2023/03/25 09:47:28;;;;;;;4.57;1.63;;;11.80;98.10;;;;;;5033143;28;20399;-76
2023/03/25 09:49:58;;;;;;;4.50;1.50;;;11.90;98.10;;;;;;5034074;28;20128;-75
2023/03/25 09:52:30;;;;;;;5.32;1.70;;;11.80;97.80;;;;;;5034202;28;20100;-76
2023/03/25 09:55:01;;;;;;;5.95;1.77;;;12.00;98.00;;;;;;5034071;28;20192;-72
2023/03/25 09:57:32;;;;;;;5.13;1.90;;;12.00;97.90;;;;;;5034346;28;20030;-73
2023/03/25 10:00:02;;;;;;;4.13;1.90;;;11.90;97.60;;;;;;5034394;28;20025;-71
2023/03/25 10:02:54;;;;;;;6.70;1.45;;;12.00;97.80;;;;;;5033801;28;20103;-70
2023/03/25 10:05:39;;;;;;;3.47;1.70;;;12.10;97.70;;;;;;5032750;28;20029;-71
2023/03/25 10:08:14;;;;;;;8.80;2.00;;;12.20;97.40;;;;;;5032438;28;20029;-71
2023/03/25 10:11:00;;;;;;;6.18;1.98;;;12.40;97.40;;;;;;5033552;28;20506;-72
2023/03/25 10:14:01;;;;;;;5.55;1.80;;;12.50;97.10;;;;;;5032441;28;20120;-70
2023/03/25 10:16:32;;;;;;;5.07;1.77;;;13.20;96.90;;;;;;5033382;28;20044;-71
2023/03/25 10:19:21;;;;;;;6.25;1.90;;;13.90;95.90;;;;;;5033714;28;20091;-71
2023/03/25 10:21:56;;;;;;;4.82;2.40;;;14.20;95.10;;;;;;5029649;28;20033;-72
2023/03/25 10:24:28;;;;;;;6.78;2.08;;;14.20;94.80;;;;;;5033357;28;20474;-70
2023/03/25 10:27:23;;;;;;;8.65;1.90;;;14.10;94.50;;;;;;5033656;28;20442;-70
2023/03/25 10:29:56;;;;;;;6.95;2.20;;;14.10;94.00;;;;;;5033038;28;20040;-70
2023/03/25 10:32:43;;;;;;;4.88;1.65;;;14.10;94.00;;;;;;5033004;28;20098;-70
2023/03/25 10:35:19;;;;;;;9.27;1.95;;;13.80;93.40;;;;;;5033214;28;20107;-69
2023/03/25 10:37:47;;;;;;;10.07;2.00;;;13.60;93.50;;;;;;5033084;28;20372;-70
2023/03/25 10:40:30;;;;;;;5.72;1.88;;;14.20;93.80;;;;;;5031836;28;20025;-70
2023/03/25 10:43:13;;;;;;;4.15;1.48;;;14.50;92.80;;;;;;5032949;28;20471;-71
2023/03/25 10:45:41;;;;;;;7.05;1.70;;;14.50;92.40;;;;;;5031739;28;20079;-71
2023/03/25 10:48:14;;;;;;;6.40;1.90;;;14.60;92.60;;;;;;5033135;28;20029;-70
2023/03/25 10:50:41;;;;;;;6.88;2.17;;;14.40;92.10;;;;;;5013400;28;20050;-70
2023/03/25 10:53:24;;;;;;;7.97;2.05;;;14.30;91.90;;;;;;5028338;28;20171;-70
2023/03/25 10:56:08;;;;;;;10.65;2.20;;;14.20;92.00;;;;;;5031520;28;20086;-71
2023/03/25 10:58:37;;;;;;;10.57;2.05;;;14.10;91.80;;;;;;5032850;28;20041;-70
2023/03/25 11:01:13;;;;;;;4.60;1.63;;;14.10;91.90;;;;;;5031499;28;20128;-70
2023/03/25 11:03:42;;;;;;;5.63;2.10;;;13.90;91.60;;;;;;5032636;28;20108;-70
2023/03/25 11:06:29;;;;;;;6.78;1.55;;;13.80;91.80;;;;;;5031992;28;20033;-69
2023/03/25 11:09:19;;;;;;;5.63;1.70;;;13.70;91.50;;;;;;5031449;28;20107;-71
2023/03/25 11:11:46;;;;;;;11.93;2.03;;;13.60;91.60;;;;;;5032515;28;20033;-70
2023/03/25 11:14:12;;;;;;;7.72;1.80;;;13.50;91.60;;;;;;5032409;28;20061;-70
2023/03/25 11:16:51;;;;;;;7.90;1.90;;;13.40;91.70;;;;;;5032566;28;20036;-69
2023/03/25 11:19:42;;;;;;;9.70;2.10;;;13.40;91.80;;;;;;5032410;28;20253;-70
2023/03/25 11:22:21;;;;;;;6.90;2.17;;;13.20;91.50;;;;;;5029542;28;20029;-70
2023/03/25 11:24:53;;;;;;;8.93;2.50;;;13.10;91.60;;;;;;5032081;28;20091;-70
2023/03/25 11:27:22;;;;;;;7.15;2.20;;;13.20;91.60;;;;;;5032806;28;20454;-70
2023/03/25 11:30:04;;;;;;;7.85;2.33;;;13.10;91.60;;;;;;5032666;28;20244;-70
2023/03/25 11:32:35;;;;;;;6.25;1.92;;;13.30;91.70;;;;;;5033947;28;20616;-70
2023/03/25 11:35:09;;;;;;;4.60;1.50;;;13.30;91.80;;;;;;5032343;28;20348;-70
2023/03/25 11:37:46;;;;;;;11.50;1.98;;;13.20;92.00;;;;;;5030846;28;20033;-70
2023/03/25 11:40:15;;;;;;;9.35;2.10;;;13.30;91.80;;;;;;5030858;28;20063;-69
2023/03/25 11:42:48;;;;;;;7.60;1.65;;;13.40;91.90;;;;;;5032125;28;20025;-69
2023/03/25 11:45:26;;;;;;;6.70;1.40;;;13.40;91.80;;;;;;5032383;28;20029;-69
2023/03/25 11:47:56;;;;;;;8.35;1.60;;;13.40;91.80;;;;;;5032364;28;20032;-70
2023/03/25 11:50:27;;;;;;;6.18;1.80;;;13.40;91.60;;;;;;5031165;28;20099;-70
2023/03/25 11:52:59;;;;;;;5.97;1.60;;;13.40;91.80;;;;;;5030521;28;20372;-70
2023/03/25 11:55:28;;;;;;;5.97;1.75;;;13.40;91.80;;;;;;5031715;28;20052;-71
2023/03/25 11:57:57;;;;;;;13.45;1.85;;;13.30;91.90;;;;;;5031549;28;20042;-69
2023/03/25 12:00:40;;;;;;;8.80;1.65;;;13.30;92.20;;;;;;5031726;28;20021;-71
2023/03/25 12:03:19;;;;;;;5.55;1.67;;;13.30;92.30;;;;;;5032100;28;20460;-70
2023/03/25 12:06:15;;;;;;;7.72;1.85;;;13.30;92.30;;;;;;5030616;28;20052;-71
2023/03/25 12:08:52;;;;;;;5.43;1.40;;;13.20;92.40;;;;;;5031358;28;20041;-70
2023/03/25 12:11:24;;;;;;;5.32;1.65;;;13.30;92.60;;;;;;5031410;28;20037;-69
2023/03/25 12:14:05;;;;;;;6.07;1.70;;;13.30;92.60;;;;;;5031455;28;20033;-71
2023/03/25 12:16:43;;;;;;;7.75;1.73;;;13.50;92.70;;;;;;5031326;28;20057;-70
2023/03/25 12:19:15;;;;;;;8.77;2.58;;;13.30;92.70;;;;;;5030274;28;20486;-70
2023/03/25 12:22:17;;;;;;;3.22;1.50;;;13.40;92.80;;;;;;5031217;28;20075;-69
2023/03/25 12:24:55;;;;;;;6.03;1.67;;;13.60;92.70;;;;;;5031100;28;20025;-71
2023/03/25 12:27:42;;;;;;;5.22;1.85;;;13.60;92.50;;;;;;5031446;28;20419;-71
2023/03/25 12:30:32;;;;;;;7.40;1.75;;;13.50;92.40;;;;;;5031458;28;20432;-70
2023/03/25 12:33:30;;;;;;;8.55;2.13;;;13.50;92.40;;;;;;5030825;28;20045;-70
2023/03/25 12:36:15;;;;;;;6.95;1.98;;;13.40;92.70;;;;;;5007694;28;20037;-70
2023/03/25 12:39:13;;;;;;;5.45;2.00;;;13.30;92.80;;;;;;5031041;28;20379;-70
2023/03/25 12:41:43;;;;;;;6.15;1.55;;;13.30;93.00;;;;;;5030852;28;20425;-69
2023/03/25 12:44:35;;;;;;;5.88;1.80;;;13.30;93.00;;;;;;5030775;28;20137;-70
2023/03/25 12:47:12;;;;;;;7.15;2.00;;;13.20;93.50;;;;;;5029651;28;20543;-70
2023/03/25 12:49:55;;;;;;;7.68;2.55;;;13.30;93.50;;;;;;5030555;28;20367;-70
2023/03/25 12:52:36;;;;;;;9.55;2.83;;;13.40;93.40;;;;;;5030529;28;20099;-69
2023/03/25 12:55:08;;;;;;;5.88;2.15;;;13.30;93.60;;;;;;5030834;28;20060;-69
2023/03/25 12:57:43;;;;;;;8.85;2.10;;;13.50;93.60;;;;;;5030620;28;20721;-70
2023/03/25 13:00:34;;;;;;;5.47;1.50;;;13.50;93.40;;;;;;5029949;28;20048;-70
2023/03/25 13:02:59;;;;;;;5.50;2.05;;;13.70;93.20;;;;;;5029747;28;20037;-71
2023/03/25 13:05:37;;;;;;;4.75;1.80;;;13.90;93.20;;;;;;5030708;28;20094;-70
2023/03/25 13:08:03;;;;;;;;;;;14.10;93.10;;;;;;5031175;28;20330;-71
2023/03/25 13:10:34;;;;;;;6.40;1.60;;;14.20;92.70;;;;;;5030011;28;19959;-71